Time;durP1;ratioP1;P1;durP2;ratioP2;P2;SDS_P1;SDS_P2;PMS_P1;PMS_P2;Temp;Humidity;BMP_temperature;BMP_pressure;BME280_temperature;BME280_humidity;BME280_pressure;Samples;Min_cycle;Max_cycle;Signal;HPM_P1;HPM_P2
2023/05/07 00:00:09;;;;;;;;;;;;;;;19.56;70.91;101208.94;7397837;19;1717;-47
2023/05/07 00:02:38;;;;;;;;;;;;;;;19.57;70.59;101215.97;7397264;19;1322;-48
2023/05/07 00:05:07;;;;;;;;;;;;;;;19.53;70.69;101201.13;7397350;19;1919;-47
2023/05/07 00:07:35;;;;;;;;;;;;;;;19.45;70.97;101197.25;7393251;19;1824;-47
2023/05/07 00:10:03;;;;;;;;;;;;;;;19.48;70.84;101197.00;7395213;19;1839;-47
2023/05/07 00:12:34;;;;;;;;;;;;;;;19.54;70.73;101208.22;7397907;19;914;-47
2023/05/07 00:15:03;;;;;;;;;;;;;;;19.52;70.72;101192.22;7396717;19;1853;-47
2023/05/07 00:17:31;;;;;;;;;;;;;;;19.48;70.73;101207.72;7395204;19;1293;-47
2023/05/07 00:19:59;;;;;;;;;;;;;;;19.43;70.96;101212.59;7396122;19;1563;-47
2023/05/07 00:22:29;;;;;;;;;;;;;;;19.48;70.84;101202.38;7394626;19;1737;-47
2023/05/07 00:24:58;;;;;;;;;;;;;;;19.46;70.76;101206.16;7396014;19;1723;-47
2023/05/07 00:27:27;;;;;;;;;;;;;;;19.51;70.70;101216.50;7399653;19;1451;-47
2023/05/07 00:29:57;;;;;;;;;;;;;;;19.45;70.70;101207.97;7402373;19;1842;-47
2023/05/07 00:32:26;;;;;;;;;;;;;;;19.45;70.60;101207.97;7403732;19;1396;-48
2023/05/07 00:34:55;;;;;;;;;;;;;;;19.46;70.75;101207.00;7404767;19;1082;-47
2023/05/07 00:37:23;;;;;;;;;;;;;;;19.50;70.42;101215.66;7401196;19;1852;-47
2023/05/07 00:39:51;;;;;;;;;;;;;;;19.50;70.59;101204.06;7402828;19;2009;-47
2023/05/07 00:42:20;;;;;;;;;;;;;;;19.47;70.53;101215.91;7405471;19;1425;-46
2023/05/07 00:44:49;;;;;;;;;;;;;;;19.49;70.50;101219.31;7404575;19;1817;-47
2023/05/07 00:47:20;;;;;;;;;;;;;;;19.47;70.62;101234.66;7404045;19;1860;-47
2023/05/07 00:49:48;;;;;;;;;;;;;;;19.39;70.75;101215.69;7403524;19;1927;-47
2023/05/07 00:52:18;;;;;;;;;;;;;;;19.46;70.60;101224.94;7400882;19;1893;-47
2023/05/07 00:54:47;;;;;;;;;;;;;;;19.45;70.54;101226.75;7403319;19;1480;-47
2023/05/07 00:57:15;;;;;;;;;;;;;;;19.45;70.86;101224.06;7402857;19;1809;-47
2023/05/07 00:59:44;;;;;;;;;;;;;;;19.42;70.57;101218.97;7402782;19;1713;-48
2023/05/07 01:02:12;;;;;;;;;;;;;;;19.39;70.74;101221.91;7403257;19;1047;-47
2023/05/07 01:04:43;;;;;;;;;;;;;;;19.41;70.75;101214.56;7402467;19;1939;-48
2023/05/07 01:07:12;;;;;;;;;;;;;;;19.50;69.93;101231.75;7403046;19;1327;-47
2023/05/07 01:09:41;;;;;;;;;;;;;;;19.41;70.40;101224.44;7400552;19;1839;-47
2023/05/07 01:12:09;;;;;;;;;;;;;;;19.43;70.37;101226.03;7400914;19;1861;-47
2023/05/07 01:14:38;;;;;;;;;;;;;;;19.35;70.28;101204.34;7401738;19;1845;-47
2023/05/07 01:17:06;;;;;;;;;;;;;;;19.43;70.31;101217.13;7402722;19;1778;-48
2023/05/07 01:19:34;;;;;;;;;;;;;;;19.44;70.32;101233.09;7402140;19;1733;-48
2023/05/07 01:22:10;;;;;;;;;;;;;;;19.42;70.34;101227.00;7401972;19;1434;-47
2023/05/07 01:24:41;;;;;;;;;;;;;;;19.32;70.34;101223.41;7402559;19;1622;-48
2023/05/07 01:27:10;;;;;;;;;;;;;;;19.35;70.42;101212.41;7402291;19;1449;-47
2023/05/07 01:29:38;;;;;;;;;;;;;;;19.33;70.45;101225.09;7401523;19;1469;-47
2023/05/07 01:32:07;;;;;;;;;;;;;;;19.28;70.43;101220.09;7400180;19;1875;-47
2023/05/07 01:34:37;;;;;;;;;;;;;;;19.28;70.86;101227.31;7399208;19;1950;-48
2023/05/07 01:37:05;;;;;;;;;;;;;;;19.27;70.64;101222.91;7401087;19;1571;-48
2023/05/07 01:39:34;;;;;;;;;;;;;;;19.32;70.09;101222.53;7400121;19;1366;-48
2023/05/07 01:42:05;;;;;;;;;;;;;;;19.35;70.37;101225.81;7402407;19;1548;-48
2023/05/07 01:44:34;;;;;;;;;;;;;;;19.19;71.56;101220.00;7401947;19;1512;-48
2023/05/07 01:47:04;;;;;;;;;;;;;;;19.60;70.47;101208.53;7401418;19;1923;-48
2023/05/07 01:49:32;;;;;;;;;;;;;;;20.03;69.18;101220.16;7401877;19;1857;-48
2023/05/07 01:52:01;;;;;;;;;;;;;;;20.24;68.57;101204.06;7399309;19;1859;-48
2023/05/07 01:54:30;;;;;;;;;;;;;;;20.21;68.82;101220.41;7400258;19;1488;-48
2023/05/07 01:56:59;;;;;;;;;;;;;;;20.24;68.88;101201.38;7399802;19;1469;-48
2023/05/07 01:59:30;;;;;;;;;;;;;;;20.37;68.58;101198.44;7400766;19;1555;-48
2023/05/07 02:01:58;;;;;;;;;;;;;;;20.37;68.44;101196.66;7400943;19;1136;-48
2023/05/07 02:04:27;;;;;;;;;;;;;;;20.47;68.54;101199.34;7399647;19;1204;-48
2023/05/07 02:06:55;;;;;;;;;;;;;;;20.57;67.84;101189.50;7400480;19;1469;-48
2023/05/07 02:09:23;;;;;;;;;;;;;;;20.66;67.64;101188.72;7398513;19;1544;-48
2023/05/07 02:11:52;;;;;;;;;;;;;;;20.44;68.29;101192.41;7398784;19;1851;-48
2023/05/07 02:14:20;;;;;;;;;;;;;;;20.40;68.65;101182.09;7400666;19;1408;-48
2023/05/07 02:16:51;;;;;;;;;;;;;;;20.42;68.58;101180.94;7401156;19;1733;-48
2023/05/07 02:19:20;;;;;;;;;;;;;;;20.45;68.49;101169.06;7399668;19;1810;-48
2023/05/07 02:21:49;;;;;;;;;;;;;;;20.49;68.66;101175.88;7400266;19;1541;-48
2023/05/07 02:24:18;;;;;;;;;;;;;;;20.48;68.28;101163.44;7399294;19;1770;-48
2023/05/07 02:26:46;;;;;;;;;;;;;;;20.54;68.36;101173.66;7401273;19;1630;-48
2023/05/07 02:29:14;;;;;;;;;;;;;;;20.56;68.24;101177.06;7399435;19;1784;-49
2023/05/07 02:31:42;;;;;;;;;;;;;;;20.61;68.02;101179.34;7399388;19;1833;-48
2023/05/07 02:34:13;;;;;;;;;;;;;;;20.56;68.27;101166.31;7399557;19;1563;-48
2023/05/07 02:36:42;;;;;;;;;;;;;;;20.66;67.83;101174.44;7400211;19;1808;-48
2023/05/07 02:39:10;;;;;;;;;;;;;;;20.60;68.00;101178.50;7398963;19;1879;-48
2023/05/07 02:41:38;;;;;;;;;;;;;;;20.60;67.89;101181.19;7399733;19;1037;-48
2023/05/07 02:44:06;;;;;;;;;;;;;;;20.61;67.96;101173.97;7398649;19;1967;-48
2023/05/07 02:46:35;;;;;;;;;;;;;;;20.60;68.03;101166.91;7399782;19;1741;-48
2023/05/07 02:49:03;;;;;;;;;;;;;;;20.79;67.45;101172.38;7398147;19;1722;-48
2023/05/07 02:51:34;;;;;;;;;;;;;;;20.87;67.15;101171.69;7396877;19;1850;-49
2023/05/07 02:54:03;;;;;;;;;;;;;;;20.91;66.75;101181.16;7399226;19;1469;-48
2023/05/07 02:56:31;;;;;;;;;;;;;;;20.70;67.46;101173.16;7399071;19;1804;-49
2023/05/07 02:58:59;;;;;;;;;;;;;;;20.64;67.63;101185.31;7398813;19;1552;-48
2023/05/07 03:01:28;;;;;;;;;;;;;;;20.68;67.80;101195.81;7400280;19;1042;-49
2023/05/07 03:03:56;;;;;;;;;;;;;;;20.68;67.72;101185.06;7397058;19;1966;-48
2023/05/07 03:06:25;;;;;;;;;;;;;;;20.79;67.57;101201.06;7399203;19;1047;-48
2023/05/07 03:08:56;;;;;;;;;;;;;;;20.79;67.38;101187.63;7395742;19;1583;-48
2023/05/07 03:11:25;;;;;;;;;;;;;;;20.84;67.05;101199.66;7398160;19;1857;-49
2023/05/07 03:13:53;;;;;;;;;;;;;;;20.87;67.07;101190.50;7397540;19;1806;-48
2023/05/07 03:16:21;;;;;;;;;;;;;;;20.87;67.17;101193.19;7398851;19;1085;-49
2023/05/07 03:18:50;;;;;;;;;;;;;;;20.87;66.94;101203.94;7399038;19;2078;-48
2023/05/07 03:21:18;;;;;;;;;;;;;;;20.82;67.10;101208.84;7399040;19;1737;-48
2023/05/07 03:23:46;;;;;;;;;;;;;;;20.82;67.15;101208.84;7398526;19;1417;-48
2023/05/07 03:26:17;;;;;;;;;;;;;;;20.80;67.33;101211.66;7398435;19;1381;-48
2023/05/07 03:28:45;;;;;;;;;;;;;;;20.81;67.35;101223.25;7399272;19;954;-48
2023/05/07 03:31:14;;;;;;;;;;;;;;;20.81;67.32;101215.19;7398206;19;1855;-48
2023/05/07 03:33:53;;;;;;;;;;;;;;;20.84;67.31;101213.09;7396876;19;1544;-48
2023/05/07 03:36:21;;;;;;;;;;;;;;;20.86;67.14;101226.41;7397813;19;1709;-49
2023/05/07 03:38:50;;;;;;;;;;;;;;;20.85;67.29;101225.56;7397583;19;1797;-49
2023/05/07 03:41:21;;;;;;;;;;;;;;;20.82;67.19;101219.59;7397905;19;961;-48
2023/05/07 03:43:50;;;;;;;;;;;;;;;20.84;67.29;101237.28;7397110;19;1844;-48
2023/05/07 03:46:18;;;;;;;;;;;;;;;20.84;66.89;101225.69;7396874;19;1738;-48
2023/05/07 03:48:46;;;;;;;;;;;;;;;20.88;67.13;101227.13;7396749;19;1511;-48
2023/05/07 03:51:15;;;;;;;;;;;;;;;20.97;66.63;101234.38;7396767;19;1834;-48
2023/05/07 03:53:43;;;;;;;;;;;;;;;21.03;66.39;101217.69;7396577;19;1369;-49
2023/05/07 03:56:12;;;;;;;;;;;;;;;20.99;66.42;101223.47;7397055;19;1634;-49
2023/05/07 03:58:42;;;;;;;;;;;;;;;20.88;66.92;101229.81;7396756;19;1547;-48
2023/05/07 04:01:11;;;;;;;;;;;;;;;20.86;66.85;101224.56;7396446;19;1066;-48
2023/05/07 04:03:39;;;;;;;;;;;;;;;20.81;66.97;101236.72;7397008;19;1496;-48
2023/05/07 04:06:08;;;;;;;;;;;;;;;20.98;66.27;101225.31;7397315;19;964;-48
2023/05/07 04:08:36;;;;;;;;;;;;;;;20.97;65.90;101218.25;7394736;19;1893;-48
2023/05/07 04:11:04;;;;;;;;;;;;;;;20.89;66.04;101226.16;7395818;19;1851;-48
2023/05/07 04:13:33;;;;;;;;;;;;;;;20.79;66.50;101233.31;7395118;19;1715;-48
2023/05/07 04:16:05;;;;;;;;;;;;;;;20.70;66.45;101229.59;7396565;19;1851;-48
2023/05/07 04:18:33;;;;;;;;;;;;;;;20.70;66.58;101236.81;7397457;19;1749;-48
2023/05/07 04:21:01;;;;;;;;;;;;;;;20.59;66.88;101235.06;7393815;19;1980;-48
2023/05/07 04:23:30;;;;;;;;;;;;;;;20.57;66.81;101245.94;7396885;19;1721;-48
2023/05/07 04:25:58;;;;;;;;;;;;;;;20.56;67.03;101246.91;7397793;19;1007;-48
2023/05/07 04:28:27;;;;;;;;;;;;;;;20.64;66.55;101244.44;7397270;19;2131;-48
2023/05/07 04:30:55;;;;;;;;;;;;;;;20.61;66.65;101250.09;7395721;19;1860;-48
2023/05/07 04:33:26;;;;;;;;;;;;;;;20.59;66.72;101245.81;7392927;19;1886;-49
2023/05/07 04:35:54;;;;;;;;;;;;;;;20.59;66.89;101252.06;7395645;19;1442;-48
2023/05/07 04:38:23;;;;;;;;;;;;;;;20.65;66.61;101248.84;7394991;19;1219;-48
2023/05/07 04:40:51;;;;;;;;;;;;;;;20.80;66.17;101256.53;7396311;19;1124;-48
2023/05/07 04:43:20;;;;;;;;;;;;;;;20.69;66.46;101262.84;7396310;19;1480;-48
2023/05/07 04:45:49;;;;;;;;;;;;;;;20.76;66.43;101264.00;7395270;19;1600;-48
2023/05/07 04:48:19;;;;;;;;;;;;;;;20.64;66.70;101265.09;7395736;19;1543;-48
2023/05/07 04:50:50;;;;;;;;;;;;;;;20.59;66.96;101272.69;7394463;19;1586;-48
2023/05/07 04:53:18;;;;;;;;;;;;;;;20.49;67.08;101267.22;7394159;19;1864;-48
2023/05/07 04:55:47;;;;;;;;;;;;;;;20.42;67.56;101274.97;7393165;19;1393;-48
2023/05/07 04:58:15;;;;;;;;;;;;;;;20.35;67.82;101286.38;7395871;19;1185;-48
2023/05/07 05:00:43;;;;;;;;;;;;;;;20.41;67.62;101275.09;7396170;19;1900;-48
2023/05/07 05:03:12;;;;;;;;;;;;;;;20.32;66.95;101260.63;6872900;19;10000158;-48
2023/05/07 05:05:40;;;;;;;;;;;;;;;20.18;68.35;101269.03;7385174;19;1793;-48
2023/05/07 05:08:11;;;;;;;;;;;;;;;19.97;68.70;101271.69;7387284;19;1654;-48
2023/05/07 05:10:40;;;;;;;;;;;;;;;19.98;68.64;101278.78;7382963;19;1652;-48
2023/05/07 05:13:09;;;;;;;;;;;;;;;19.95;68.76;101281.72;7388456;19;1856;-48
2023/05/07 05:15:37;;;;;;;;;;;;;;;20.00;68.62;101271.44;7394514;19;1737;-48
2023/05/07 05:18:05;;;;;;;;;;;;;;;20.08;68.43;101268.97;7395388;19;1762;-48
2023/05/07 05:20:34;;;;;;;;;;;;;;;20.03;68.59;101271.19;7395183;19;1587;-48
2023/05/07 05:23:02;;;;;;;;;;;;;;;20.04;68.63;101275.59;7396149;19;1484;-48
2023/05/07 05:25:33;;;;;;;;;;;;;;;19.99;68.50;101261.69;7395524;19;1114;-48
2023/05/07 05:28:01;;;;;;;;;;;;;;;20.05;68.54;101263.84;7394656;19;1769;-48
2023/05/07 05:30:30;;;;;;;;;;;;;;;20.01;68.62;101265.09;7393954;19;1405;-48
2023/05/07 05:32:58;;;;;;;;;;;;;;;19.93;69.09;101270.25;7392087;19;1854;-48
2023/05/07 05:35:26;;;;;;;;;;;;;;;19.86;69.17;101264.56;7393604;19;1571;-48
2023/05/07 05:37:54;;;;;;;;;;;;;;;19.86;69.37;101272.63;7395282;19;1275;-48
2023/05/07 05:40:23;;;;;;;;;;;;;;;19.86;69.57;101268.09;7393535;19;1566;-48
2023/05/07 05:42:54;;;;;;;;;;;;;;;19.84;69.35;101267.38;7393869;19;1781;-48
2023/05/07 05:45:22;;;;;;;;;;;;;;;19.92;69.27;101272.09;7397568;19;1391;-48
2023/05/07 05:47:50;;;;;;;;;;;;;;;19.98;69.18;101268.88;7397084;19;1228;-48
2023/05/07 05:50:19;;;;;;;;;;;;;;;20.02;68.96;101270.34;7401794;19;1854;-48
2023/05/07 05:52:47;;;;;;;;;;;;;;;20.13;68.66;101263.19;7402112;19;1844;-48
2023/05/07 05:55:15;;;;;;;;;;;;;;;20.21;67.90;101268.75;7399295;19;1789;-48
2023/05/07 05:57:44;;;;;;;;;;;;;;;20.30;67.67;101267.13;7401009;19;1972;-49
2023/05/07 06:00:15;;;;;;;;;;;;;;;20.34;67.32;101268.56;7401277;19;1738;-49
2023/05/07 06:02:44;;;;;;;;;;;;;;;20.30;67.25;101257.25;7402025;19;1159;-48
2023/05/07 06:05:12;;;;;;;;;;;;;;;20.34;66.77;101263.19;7401186;19;1833;-48
2023/05/07 06:07:40;;;;;;;;;;;;;;;20.23;67.21;101262.28;7400299;19;1682;-49
2023/05/07 06:10:09;;;;;;;;;;;;;;;20.31;66.94;101256.25;7398484;19;1453;-48
2023/05/07 06:12:38;;;;;;;;;;;;;;;20.31;67.13;101258.06;7399274;19;1866;-48
2023/05/07 06:15:06;;;;;;;;;;;;;;;20.37;66.92;101274.53;7394615;19;1818;-50
2023/05/07 06:17:37;;;;;;;;;;;;;;;20.34;67.06;101280.16;7398524;19;1436;-50
2023/05/07 06:20:06;;;;;;;;;;;;;;;20.36;66.93;101262.06;7398282;19;1380;-50
2023/05/07 06:22:34;;;;;;;;;;;;;;;20.31;67.31;101264.28;7399050;19;1445;-50
2023/05/07 06:25:03;;;;;;;;;;;;;;;20.27;67.39;101270.91;7396296;19;1558;-50
2023/05/07 06:27:31;;;;;;;;;;;;;;;20.27;67.20;101268.22;7399070;19;1338;-49
2023/05/07 06:29:59;;;;;;;;;;;;;;;20.24;64.78;101261.28;7398740;19;1440;-50
2023/05/07 06:32:27;;;;;;;;;;;;;;;20.42;63.44;101266.06;7396765;19;1849;-50
2023/05/07 06:34:58;;;;;;;;;;;;;;;20.27;65.08;101268.22;7399230;19;1234;-49
2023/05/07 06:37:26;;;;;;;;;;;;;;;20.23;61.52;101259.59;7398695;19;1979;-49
2023/05/07 06:39:55;;;;;;;;;;;;;;;20.13;62.81;101260.50;7398675;19;1788;-49
2023/05/07 06:42:23;;;;;;;;;;;;;;;20.20;60.87;101273.28;7397074;19;1476;-50
2023/05/07 06:44:51;;;;;;;;;;;;;;;20.31;62.06;101274.19;7398166;19;1848;-51
2023/05/07 06:47:20;;;;;;;;;;;;;;;20.44;62.34;101256.03;7397918;19;1681;-50
2023/05/07 06:49:48;;;;;;;;;;;;;;;20.46;62.89;101262.13;7397306;19;1894;-49
2023/05/07 06:52:19;;;;;;;;;;;;;;;20.48;63.44;101260.16;7396605;19;1861;-50
2023/05/07 06:54:47;;;;;;;;;;;;;;;20.43;63.79;101265.06;7397553;19;1428;-51
2023/05/07 06:57:15;;;;;;;;;;;;;;;20.36;63.99;101267.44;7397854;19;1453;-51
2023/05/07 06:59:44;;;;;;;;;;;;;;;20.45;63.96;101250.53;7395756;19;1421;-51
2023/05/07 07:02:12;;;;;;;;;;;;;;;20.49;64.07;101256.47;7397796;19;1098;-50
2023/05/07 07:04:41;;;;;;;;;;;;;;;20.52;64.27;101258.06;7396861;19;1231;-50
2023/05/07 07:07:09;;;;;;;;;;;;;;;20.42;64.60;101252.63;7397088;19;1556;-50
2023/05/07 07:09:40;;;;;;;;;;;;;;;20.48;64.82;101262.84;7396180;19;1609;-50
2023/05/07 07:12:09;;;;;;;;;;;;;;;20.44;65.08;101258.72;7397802;19;1857;-50
2023/05/07 07:14:37;;;;;;;;;;;;;;;20.58;64.84;101254.84;7397629;19;1943;-51
2023/05/07 07:17:05;;;;;;;;;;;;;;;20.56;65.19;101240.69;7396571;19;1580;-51
2023/05/07 07:19:34;;;;;;;;;;;;;;;20.52;65.50;101247.31;7396861;19;1824;-51
2023/05/07 07:22:02;;;;;;;;;;;;;;;20.57;65.56;101259.38;7397645;19;1602;-50
2023/05/07 07:24:30;;;;;;;;;;;;;;;20.52;65.62;101250.84;7397509;19;1208;-50
2023/05/07 07:27:01;;;;;;;;;;;;;;;20.53;65.83;101257.06;7398624;19;1559;-50
2023/05/07 07:29:30;;;;;;;;;;;;;;;20.53;65.96;101259.75;7397655;19;1631;-50
2023/05/07 07:31:58;;;;;;;;;;;;;;;20.51;66.37;101254.50;7398906;19;1257;-50
2023/05/07 07:34:27;;;;;;;;;;;;;;;20.55;66.22;101261.34;7394635;19;1875;-50
2023/05/07 07:36:56;;;;;;;;;;;;;;;20.59;66.31;101262.81;7396179;19;1573;-51
2023/05/07 07:39:24;;;;;;;;;;;;;;;20.54;66.40;101253.41;7396965;19;1741;-52
2023/05/07 07:41:52;;;;;;;;;;;;;;;20.46;66.92;101264.81;7397128;19;1146;-51
2023/05/07 07:44:23;;;;;;;;;;;;;;;20.44;66.95;101247.97;7397801;19;1829;-51
2023/05/07 07:46:52;;;;;;;;;;;;;;;20.41;67.09;101262.53;7397248;19;1314;-51
2023/05/07 07:49:20;;;;;;;;;;;;;;;20.33;67.64;101267.69;7397310;19;1456;-51
2023/05/07 07:51:48;;;;;;;;;;;;;;;20.39;67.32;101277.06;7395594;19;1338;-51
2023/05/07 07:54:17;;;;;;;;;;;;;;;20.47;66.90;101266.50;7395294;19;1822;-51
2023/05/07 07:56:45;;;;;;;;;;;;;;;20.52;66.94;101261.59;7395041;19;1594;-50
2023/05/07 07:59:17;;;;;;;;;;;;;;;20.56;66.93;101256.81;7397140;19;1294;-49
2023/05/07 08:01:50;;;;;;;;;;;;;;;20.45;67.44;101263.97;7397606;19;1114;-47
2023/05/07 08:04:18;;;;;;;;;;;;;;;20.43;67.76;101260.56;7393484;19;1576;-47
2023/05/07 08:06:46;;;;;;;;;;;;;;;20.46;67.77;101254.06;7392593;19;1686;-49
2023/05/07 08:09:14;;;;;;;;;;;;;;;20.45;67.69;101247.84;7393449;19;1533;-47
2023/05/07 08:11:43;;;;;;;;;;;;;;;20.32;66.33;101257.13;7393134;19;1369;-48
2023/05/07 08:14:12;;;;;;;;;;;;;;;20.35;64.62;101276.50;7392564;19;1858;-48
2023/05/07 08:16:40;;;;;;;;;;;;;;;20.30;64.93;101251.03;7394806;19;1393;-46
2023/05/07 08:19:11;;;;;;;;;;;;;;;20.33;64.80;101254.28;7391994;19;1281;-47
2023/05/07 08:21:41;;;;;;;;;;;;;;;20.38;64.26;101243.16;7393019;19;1380;-47
2023/05/07 08:24:09;;;;;;;;;;;;;;;20.36;63.24;101245.97;7390691;19;1338;-49
2023/05/07 08:26:39;;;;;;;;;;;;;;;20.24;62.46;101242.50;7393381;19;1543;-47
2023/05/07 08:29:07;;;;;;;;;;;;;;;20.19;62.99;101244.75;7391778;19;1927;-47
2023/05/07 08:31:35;;;;;;;;;;;;;;;20.27;62.65;101249.44;7393726;19;1171;-48
2023/05/07 08:34:04;;;;;;;;;;;;;;;20.21;61.58;101248.16;7394223;19;1879;-48
2023/05/07 08:36:35;;;;;;;;;;;;;;;20.22;61.21;101249.84;7396707;19;1429;-47
2023/05/07 08:39:03;;;;;;;;;;;;;;;20.12;61.08;101238.19;7394495;19;1191;-47
2023/05/07 08:41:31;;;;;;;;;;;;;;;20.08;61.81;101242.13;7393778;19;1382;-47
2023/05/07 08:44:01;;;;;;;;;;;;;;;20.12;59.04;101238.19;7394297;19;1460;-47
2023/05/07 08:46:32;;;;;;;;;;;;;;;20.09;60.05;101225.00;7395858;19;1181;-48
2023/05/07 08:49:01;;;;;;;;;;;;;;;20.32;59.94;101236.47;7396837;19;1345;-48
2023/05/07 08:51:29;;;;;;;;;;;;;;;20.27;59.69;101241.38;7400419;19;2008;-47
2023/05/07 08:54:00;;;;;;;;;;;;;;;20.27;60.44;101230.63;7396309;19;1857;-50
2023/05/07 08:56:28;;;;;;;;;;;;;;;20.29;60.99;101219.75;7394782;19;1484;-47
2023/05/07 08:58:58;;;;;;;;;;;;;;;20.40;61.17;101235.81;7392707;19;1792;-47
2023/05/07 09:01:27;;;;;;;;;;;;;;;20.24;61.64;101221.00;7395600;19;1270;-47
2023/05/07 09:03:55;;;;;;;;;;;;;;;20.22;62.05;101239.09;7393826;19;1325;-47
2023/05/07 09:06:24;;;;;;;;;;;;;;;20.21;61.84;101215.03;7395075;19;1353;-48
2023/05/07 09:08:53;;;;;;;;;;;;;;;20.22;61.76;101206.88;7393464;19;1535;-48
2023/05/07 09:11:27;;;;;;;;;;;;;;;20.24;62.32;101221.00;7397447;19;1164;-50
2023/05/07 09:13:57;;;;;;;;;;;;;;;20.19;62.75;101223.25;7394158;19;1871;-49
2023/05/07 09:16:26;;;;;;;;;;;;;;;20.04;63.52;101220.03;7396613;19;1275;-47
2023/05/07 09:18:55;;;;;;;;;;;;;;;20.00;63.86;101221.28;7396348;19;1242;-48
2023/05/07 09:21:24;;;;;;;;;;;;;;;20.05;63.87;101215.53;7397006;19;1583;-48
2023/05/07 09:23:53;;;;;;;;;;;;;;;20.36;63.17;101215.56;7396923;19;1492;-48
2023/05/07 09:26:23;;;;;;;;;;;;;;;20.34;63.32;101210.31;7399693;19;1261;-48
2023/05/07 09:28:54;;;;;;;;;;;;;;;20.13;63.44;101199.59;7399460;19;1316;-46
2023/05/07 09:31:23;;;;;;;;;;;;;;;20.10;63.72;101191.81;7401632;19;1243;-50
2023/05/07 09:33:51;;;;;;;;;;;;;;;20.15;63.27;101203.00;7398320;19;1853;-50
2023/05/07 09:36:20;;;;;;;;;;;;;;;20.18;62.99;101200.06;7399581;19;1257;-46
2023/05/07 09:38:49;;;;;;;;;;;;;;;20.33;62.92;101203.22;7399259;19;1266;-48
2023/05/07 09:41:17;;;;;;;;;;;;;;;20.19;63.19;101188.34;7399847;19;1247;-47
2023/05/07 09:43:45;;;;;;;;;;;;;;;20.16;63.06;101182.38;7398931;19;1263;-48
2023/05/07 09:46:17;;;;;;;;;;;;;;;20.22;63.17;101201.50;7397897;19;1290;-49
2023/05/07 09:48:46;;;;;;;;;;;;;;;20.27;63.34;101207.34;7398810;19;1525;-50
2023/05/07 09:51:20;;;;;;;;;;;;;;;20.25;63.50;101201.25;7397873;19;1635;-49
2023/05/07 09:53:48;;;;;;;;;;;;;;;20.21;63.23;101180.13;7398348;19;1844;-47
2023/05/07 09:56:17;;;;;;;;;;;;;;;20.32;64.42;101184.59;7399131;19;1534;-47
2023/05/07 09:58:47;;;;;;;;;;;;;;;20.43;64.52;101185.34;7398733;19;1222;-48
2023/05/07 10:01:21;;;;;;;;;;;;;;;20.32;64.95;101184.59;7399769;19;1237;-51
2023/05/07 10:03:52;;;;;;;;;;;;;;;20.35;64.97;101178.94;7398593;19;1283;-48
2023/05/07 10:06:22;;;;;;;;;;;;;;;20.39;64.59;101173.19;7398479;19;1543;-50
2023/05/07 10:08:51;;;;;;;;;;;;;;;20.20;65.51;101184.66;7395014;19;1510;-51
2023/05/07 10:11:20;;;;;;;;;;;;;;;20.22;65.18;101180.00;7397182;19;1279;-50
2023/05/07 10:13:49;;;;;;;;;;;;;;;20.25;65.28;101173.50;7393969;19;1899;-48
2023/05/07 10:16:20;;;;;;;;;;;;;;;20.09;65.62;101168.63;7398431;19;1567;-47
2023/05/07 10:18:49;;;;;;;;;;;;;;;20.02;65.66;101162.94;7397729;19;1992;-48
2023/05/07 10:21:19;;;;;;;;;;;;;;;20.04;65.08;101141.34;7397644;19;1184;-49
2023/05/07 10:23:48;;;;;;;;;;;;;;;20.18;64.26;101157.09;7398899;19;1852;-49
2023/05/07 10:26:17;;;;;;;;;;;;;;;20.10;64.76;101148.03;7398923;19;1271;-48
2023/05/07 10:28:47;;;;;;;;;;;;;;;20.03;64.21;101153.06;7398834;19;1551;-48
2023/05/07 10:31:30;;;;;;;;;;;;;;;20.03;63.52;101163.78;7400903;19;1326;-49
2023/05/07 10:33:59;;;;;;;;;;;;;;;20.10;63.06;101154.22;7395964;19;1848;-48
2023/05/07 10:36:28;;;;;;;;;;;;;;;19.92;62.84;101150.47;7399341;19;1623;-48
2023/05/07 10:38:57;;;;;;;;;;;;;;;19.76;62.41;101159.81;7398638;19;1650;-49
2023/05/07 10:41:25;;;;;;;;;;;;;;;19.87;63.44;101150.84;7400789;19;1015;-48
2023/05/07 10:43:54;;;;;;;;;;;;;;;19.92;62.95;101135.19;7397329;19;1857;-49
2023/05/07 10:46:25;;;;;;;;;;;;;;;20.05;62.59;101141.22;7396908;19;1625;-49
2023/05/07 10:49:10;;;;;;;;;;;;;;;20.21;62.52;101143.41;7396624;19;1956;-49
2023/05/07 10:51:38;;;;;;;;;;;;;;;20.13;62.87;101148.56;7398653;19;1639;-50
2023/05/07 10:54:23;;;;;;;;;;;;;;;20.22;62.72;101130.84;7397294;19;1845;-48
2023/05/07 10:56:52;;;;;;;;;;;;;;;19.98;63.88;101133.81;7398087;19;1436;-49
2023/05/07 10:59:41;;;;;;;;;;;;;;;19.99;63.48;101135.50;7398812;19;1350;-48
2023/05/07 11:02:14;;;;;;;;;;;;;;;19.93;63.93;101150.31;7399164;19;1767;-48
2023/05/07 11:04:42;;;;;;;;;;;;;;;20.01;64.08;101152.34;7397732;19;1516;-48
2023/05/07 11:07:26;;;;;;;;;;;;;;;20.02;63.98;101122.69;7397579;19;1493;-48
2023/05/07 11:10:00;;;;;;;;;;;;;;;20.29;63.30;101115.03;7395329;19;1740;-48
2023/05/07 11:12:50;;;;;;;;;;;;;;;20.08;63.99;101123.16;7397075;19;1607;-48
2023/05/07 11:15:35;;;;;;;;;;;;;;;20.04;64.54;101122.56;7396719;19;2180;-48
2023/05/07 11:18:06;;;;;;;;;;;;;;;19.91;65.39;101108.50;7399404;19;1761;-47
2023/05/07 11:20:49;;;;;;;;;;;;;;;20.00;65.13;101113.91;7398052;19;1952;-49
2023/05/07 11:23:33;;;;;;;;;;;;;;;20.04;65.39;101111.81;7398110;19;1562;-49
2023/05/07 11:26:01;;;;;;;;;;;;;;;20.01;66.12;101104.00;7397512;19;1802;-48
2023/05/07 11:28:30;;;;;;;;;;;;;;;20.03;67.16;101132.44;7398606;19;1590;-50
2023/05/07 11:30:59;;;;;;;;;;;;;;;20.04;66.80;101111.81;7398511;19;1484;-50
2023/05/07 11:33:30;;;;;;;;;;;;;;;20.12;66.90;101125.41;7397360;19;1921;-50
2023/05/07 11:35:59;;;;;;;;;;;;;;;20.17;66.50;101131.22;7395273;19;1851;-47
2023/05/07 11:38:27;;;;;;;;;;;;;;;20.37;65.94;101113.38;7395616;19;1958;-48
2023/05/07 11:40:56;;;;;;;;;;;;;;;20.55;65.35;101124.31;7398772;19;1574;-48
2023/05/07 11:43:24;;;;;;;;;;;;;;;20.59;65.31;101109.66;7396190;19;1928;-48
2023/05/07 11:45:53;;;;;;;;;;;;;;;20.53;65.36;101114.66;7394230;19;1634;-48
2023/05/07 11:48:23;;;;;;;;;;;;;;;20.46;65.74;101114.38;7397325;19;1520;-47
2023/05/07 11:51:02;;;;;;;;;;;;;;;20.39;66.02;101092.59;7395496;19;1400;-48
2023/05/07 11:53:37;;;;;;;;;;;;;;;20.39;66.13;101102.47;7394516;19;1729;-49
2023/05/07 11:56:09;;;;;;;;;;;;;;;20.33;66.58;101108.38;7395112;19;1933;-50
2023/05/07 11:58:37;;;;;;;;;;;;;;;20.28;66.97;101095.38;7397287;19;1488;-47
2023/05/07 12:01:06;;;;;;;;;;;;;;;20.46;66.22;101084.84;7396505;19;1278;-46
2023/05/07 12:03:34;;;;;;;;;;;;;;;20.41;67.42;101092.44;7395284;19;1223;-48
2023/05/07 12:06:05;;;;;;;;;;;;;;;20.45;67.10;101083.13;7394466;19;1441;-49
2023/05/07 12:08:33;;;;;;;;;;;;;;;20.49;67.19;101089.91;7394155;19;1342;-49
2023/05/07 12:11:02;;;;;;;;;;;;;;;20.36;67.57;101081.28;7396268;19;1289;-48
2023/05/07 12:13:30;;;;;;;;;;;;;;;20.35;68.08;101079.56;7396201;19;1614;-48
2023/05/07 12:15:59;;;;;;;;;;;;;;;20.34;68.10;101078.72;7394520;19;1896;-47
2023/05/07 12:18:28;;;;;;;;;;;;;;;20.36;68.40;101062.47;7396341;19;1449;-47
2023/05/07 12:20:56;;;;;;;;;;;;;;;20.31;68.08;101070.91;7395234;19;1506;-48
2023/05/07 12:23:27;;;;;;;;;;;;;;;20.40;67.89;101080.84;7401808;19;1649;-48
2023/05/07 12:25:55;;;;;;;;;;;;;;;20.48;67.38;101058.69;7404218;19;1491;-47
2023/05/07 12:28:24;;;;;;;;;;;;;;;20.52;67.44;101062.78;7404020;19;1583;-47
2023/05/07 12:30:53;;;;;;;;;;;;;;;20.44;67.84;101057.25;7404890;19;1481;-48
2023/05/07 12:33:22;;;;;;;;;;;;;;;20.51;67.75;101055.69;7401452;19;1618;-48
2023/05/07 12:35:50;;;;;;;;;;;;;;;20.27;68.54;101038.13;7400828;19;1851;-48
2023/05/07 12:38:19;;;;;;;;;;;;;;;20.25;67.97;101041.94;7404074;19;1582;-48
2023/05/07 12:40:51;;;;;;;;;;;;;;;20.24;68.40;101059.88;6884561;19;9999869;-48
2023/05/07 12:43:20;;;;;;;;;;;;;;;20.33;68.18;101057.34;7391655;19;1637;-50
2023/05/07 12:45:49;;;;;;;;;;;;;;;20.46;67.99;101060.66;7396517;19;1547;-48
2023/05/07 12:48:17;;;;;;;;;;;;;;;20.48;67.39;101047.94;7397703;19;1481;-48
2023/05/07 12:50:46;;;;;;;;;;;;;;;20.52;67.03;101045.81;7400283;19;1523;-48
2023/05/07 12:53:14;;;;;;;;;;;;;;;20.62;67.01;101041.34;7400559;19;1320;-48
2023/05/07 12:55:44;;;;;;;;;;;;;;;20.60;67.08;101054.91;7399471;19;1851;-48